Time;durP1;ratioP1;P1;durP2;ratioP2;P2;SDS_P1;SDS_P2;PMS_P1;PMS_P2;Temp;Humidity;BMP_temperature;BMP_pressure;BME280_temperature;BME280_humidity;BME280_pressure;Samples;Min_cycle;Max_cycle;Signal;HPM_P1;HPM_P2
2021/04/05 00:00:05;;;;;;;;;;;;;;;1.46;76.64;99090.75;1795902;80;20261;-63
2021/04/05 00:02:33;;;;;;;;;;;;;;;1.46;76.61;99083.91;1795887;80;20226;-66
2021/04/05 00:05:00;;;;;;;;;;;;;;;1.45;76.47;99080.94;1795911;80;20265;-63
2021/04/05 00:07:28;;;;;;;;;;;;;;;1.42;76.33;99083.53;1795908;80;21775;-63
2021/04/05 00:09:56;;;;;;;;;;;;;;;1.37;76.31;99074.63;1795806;80;20222;-64
2021/04/05 00:12:23;;;;;;;;;;;;;;;1.35;76.22;99077.64;1795888;80;20225;-63
2021/04/05 00:14:52;;;;;;;;;;;;;;;1.30;76.06;99069.58;1795876;80;20218;-63
2021/04/05 00:17:19;;;;;;;;;;;;;;;1.21;76.07;99070.94;1795888;80;20217;-63
2021/04/05 00:19:46;;;;;;;;;;;;;;;1.15;76.30;99064.63;1795836;80;21202;-63
2021/04/05 00:22:13;;;;;;;;;;;;;;;1.14;76.42;99064.20;1795728;80;20264;-63
2021/04/05 00:24:42;;;;;;;;;;;;;;;1.13;76.46;99059.95;1795881;80;20217;-63
2021/04/05 00:27:13;;;;;;;;;;;;;;;1.08;76.49;99059.98;1795870;80;20529;-62
2021/04/05 00:29:41;;;;;;;;;;;;;;;1.00;76.55;99060.48;1795912;80;20561;-62
2021/04/05 00:32:09;;;;;;;;;;;;;;;0.93;76.70;99060.98;1795887;79;21261;-63
2021/04/05 00:34:37;;;;;;;;;;;;;;;0.88;76.81;99056.77;1795790;80;20226;-64
2021/04/05 00:37:05;;;;;;;;;;;;;;;0.85;76.91;99055.08;1795853;80;20234;-64
2021/04/05 00:39:32;;;;;;;;;;;;;;;0.83;76.91;99052.96;1795939;80;20222;-63
2021/04/05 00:42:00;;;;;;;;;;;;;;;0.80;77.09;99049.61;1795870;80;20238;-63
2021/04/05 00:44:27;;;;;;;;;;;;;;;0.75;77.06;99045.80;1795867;80;21389;-63
2021/04/05 00:46:54;;;;;;;;;;;;;;;0.73;77.08;99047.95;1795750;78;20523;-63
2021/04/05 00:49:21;;;;;;;;;;;;;;;0.69;77.16;99047.97;1770498;79;20284;-63
2021/04/05 00:51:49;;;;;;;;;;;;;;;0.63;77.00;99044.61;1761854;81;20216;-63
2021/04/05 00:54:16;;;;;;;;;;;;;;;0.57;77.11;99051.08;1761786;81;20225;-63
2021/04/05 00:56:43;;;;;;;;;;;;;;;0.53;77.21;99037.45;1761746;81;21212;-63
2021/04/05 00:59:10;;;;;;;;;;;;;;;0.47;77.53;99036.21;1761717;81;20578;-63
2021/04/05 01:01:38;;;;;;;;;;;;;;;0.45;77.98;99031.53;1761767;81;20224;-63
2021/04/05 01:04:06;;;;;;;;;;;;;;;0.45;78.46;99031.97;1761727;81;20228;-63
2021/04/05 01:06:35;;;;;;;;;;;;;;;0.44;78.91;99031.11;1761798;81;20236;-63
2021/04/05 01:09:04;;;;;;;;;;;;;;;0.43;79.10;99036.24;1761758;81;22227;-63
2021/04/05 01:11:32;;;;;;;;;;;;;;;0.38;79.31;99029.91;1761677;81;20276;-63
2021/04/05 01:13:59;;;;;;;;;;;;;;;0.33;79.48;99031.22;1761752;81;20223;-63
2021/04/05 01:16:28;;;;;;;;;;;;;;;0.32;79.69;99036.34;1761713;81;20228;-63
2021/04/05 01:18:56;;;;;;;;;;;;;;;0.32;79.73;99037.19;1761769;81;20240;-63
2021/04/05 01:21:24;;;;;;;;;;;;;;;0.29;79.78;99041.04;1761759;81;21104;-63
2021/04/05 01:23:51;;;;;;;;;;;;;;;0.26;79.81;99038.93;1761673;81;20272;-62
2021/04/05 01:26:18;;;;;;;;;;;;;;;0.22;79.96;99033.41;1761738;81;20512;-62
2021/04/05 01:28:46;;;;;;;;;;;;;;;0.19;80.06;99039.85;1761754;81;20220;-62
2021/04/05 01:31:14;;;;;;;;;;;;;;;0.16;80.13;99038.16;1761864;81;20236;-63
2021/04/05 01:33:42;;;;;;;;;;;;;;;0.15;80.12;99044.56;1761738;80;21205;-63
2021/04/05 01:36:13;;;;;;;;;;;;;;;0.10;80.19;99039.47;1761773;81;20500;-62
2021/04/05 01:38:45;;;;;;;;;;;;;;;0.09;80.39;99036.92;1761844;81;20288;-63
2021/04/05 01:41:17;;;;;;;;;;;;;;;0.11;80.49;99033.92;1761757;81;20236;-63
2021/04/05 01:43:44;;;;;;;;;;;;;;;0.13;80.53;99032.21;1761737;81;20233;-62
2021/04/05 01:46:12;;;;;;;;;;;;;;;0.15;80.66;99025.37;1761719;81;22328;-62
2021/04/05 01:48:41;;;;;;;;;;;;;;;0.17;80.64;99028.35;1772487;79;20787;-63
2021/04/05 01:51:11;;;;;;;;;;;;;;;0.17;80.66;99028.78;1795806;80;20498;-63
2021/04/05 01:53:39;;;;;;;;;;;;;;;0.19;80.58;99028.34;1795317;79;20246;-63
2021/04/05 01:56:07;;;;;;;;;;;;;;;0.21;80.50;99024.89;1795784;80;20230;-63
2021/04/05 01:58:36;;;;;;;;;;;;;;;0.22;80.46;99025.73;1795818;80;21201;-63
2021/04/05 02:01:08;;;;;;;;;;;;;;;0.21;80.35;99029.16;1795755;80;20214;-64
2021/04/05 02:03:36;;;;;;;;;;;;;;;0.20;80.25;99019.81;1795881;80;20486;-63
2021/04/05 02:06:15;;;;;;;;;;;;;;;0.19;80.33;99016.41;1795785;80;20217;-63
2021/04/05 02:08:44;;;;;;;;;;;;;;;0.17;80.26;99027.08;1795210;80;20313;-64
2021/04/05 02:11:14;;;;;;;;;;;;;;;0.14;80.36;99027.09;1795864;80;22129;-63
2021/04/05 02:13:44;;;;;;;;;;;;;;;0.14;80.53;99026.23;1795782;80;20246;-63
2021/04/05 02:16:15;;;;;;;;;;;;;;;0.15;80.62;99026.66;1766100;80;20273;-63
2021/04/05 02:18:43;;;;;;;;;;;;;;;0.14;80.45;99025.81;1795824;80;20624;-63
2021/04/05 02:21:15;;;;;;;;;;;;;;;0.11;80.36;99024.55;1795792;80;20214;-63
2021/04/05 02:23:42;;;;;;;;;;;;;;;0.09;80.49;99022.86;1795103;80;22218;-63
2021/04/05 02:26:13;;;;;;;;;;;;;;;0.06;80.35;99021.59;1795309;80;20493;-63
2021/04/05 02:28:49;;;;;;;;;;;;;;;0.00;80.42;99018.20;1795778;80;20296;-63
2021/04/05 02:31:17;;;;;;;;;;;;;;;0.00;80.54;99016.93;1795791;80;20233;-63
2021/04/05 02:33:47;;;;;;;;;;;;;;;0.02;80.50;99022.03;1795901;80;20295;-63
2021/04/05 02:36:15;;;;;;;;;;;;;;;0.04;80.50;99015.20;1795793;80;21146;-63
2021/04/05 02:38:45;;;;;;;;;;;;;;;0.08;80.36;99014.34;1795693;80;20214;-63
2021/04/05 02:41:14;;;;;;;;;;;;;;;0.07;80.10;99006.24;1795879;80;20225;-63
2021/04/05 02:43:43;;;;;;;;;;;;;;;0.05;79.99;99010.52;1795727;80;20719;-63
2021/04/05 02:46:15;;;;;;;;;;;;;;;0.04;79.96;99010.09;1795782;80;20225;-63
2021/04/05 02:48:44;;;;;;;;;;;;;;;0.03;79.89;99004.98;1795631;78;21937;-63
2021/04/05 02:51:11;;;;;;;;;;;;;;;0.05;79.80;99007.11;1795727;80;20292;-62
2021/04/05 02:53:46;;;;;;;;;;;;;;;0.02;79.60;99010.53;1795777;80;20223;-62
2021/04/05 02:56:14;;;;;;;;;;;;;;;-0.03;79.45;99002.91;1795914;80;20709;-62
2021/04/05 02:58:43;;;;;;;;;;;;;;;-0.08;79.59;99005.92;1795754;80;20253;-62
2021/04/05 03:01:10;;;;;;;;;;;;;;;-0.09;79.50;99001.67;1795781;80;21373;-63
2021/04/05 03:03:41;;;;;;;;;;;;;;;-0.10;79.45;99002.95;1795677;80;20569;-63
2021/04/05 03:06:09;;;;;;;;;;;;;;;-0.09;79.53;99002.95;1795796;80;20238;-63
2021/04/05 03:08:37;;;;;;;;;;;;;;;-0.09;79.55;98996.98;1767680;80;20230;-63
2021/04/05 03:11:05;;;;;;;;;;;;;;;-0.11;79.48;98993.16;1795740;80;20242;-63
2021/04/05 03:13:35;;;;;;;;;;;;;;;-0.13;79.53;98992.74;1795764;79;21280;-63
2021/04/05 03:16:04;;;;;;;;;;;;;;;-0.14;79.65;98991.05;1795858;80;20225;-63
2021/04/05 03:18:32;;;;;;;;;;;;;;;-0.14;79.94;98990.61;1796273;80;20246;-63
2021/04/05 03:21:04;;;;;;;;;;;;;;;-0.12;80.01;98986.34;1796120;80;20494;-63
2021/04/05 03:23:31;;;;;;;;;;;;;;;-0.11;79.98;98979.09;1795951;80;20289;-63
2021/04/05 03:25:59;;;;;;;;;;;;;;;-0.09;79.76;98976.53;1796009;80;21208;-63
2021/04/05 03:28:26;;;;;;;;;;;;;;;-0.06;79.56;98984.19;1795952;80;20248;-63
2021/04/05 03:31:00;;;;;;;;;;;;;;;-0.02;79.42;98983.31;1795993;80;20219;-63
2021/04/05 03:33:39;;;;;;;;;;;;;;;0.03;79.29;98980.27;1795880;80;20233;-63
2021/04/05 03:36:12;;;;;;;;;;;;;;;0.07;79.27;98980.67;1795945;80;20226;-62
2021/04/05 03:38:40;;;;;;;;;;;;;;;0.08;79.30;98974.70;1796092;79;22495;-63
2021/04/05 03:41:10;;;;;;;;;;;;;;;0.11;79.55;98975.11;1795910;80;20242;-63
2021/04/05 03:44:05;;;;;;;;;;;;;;;0.15;79.77;98971.68;1796013;80;20482;-63
2021/04/05 03:46:36;;;;;;;;;;;;;;;0.20;79.75;98970.76;1795802;78;20242;-63
2021/04/05 03:49:25;;;;;;;;;;;;;;;0.31;79.60;98970.69;1795724;80;20552;-64
2021/04/05 03:51:56;;;;;;;;;;;;;;;0.46;79.62;98974.82;1795784;80;21211;-62
2021/04/05 03:54:23;;;;;;;;;;;;;;;0.74;79.74;98962.63;1795873;80;20230;-62
2021/04/05 03:56:52;;;;;;;;;;;;;;;1.05;79.22;98957.58;1796018;80;20277;-63
2021/04/05 03:59:28;;;;;;;;;;;;;;;1.32;78.68;98961.53;1796005;80;20210;-63
2021/04/05 04:01:59;;;;;;;;;;;;;;;1.50;78.31;98956.16;1796025;80;20214;-63
2021/04/05 04:04:35;;;;;;;;;;;;;;;1.70;77.84;98956.74;1795878;80;21138;-62
2021/04/05 04:07:09;;;;;;;;;;;;;;;1.81;77.16;98954.44;1795028;80;20781;-63
2021/04/05 04:09:29;;;;;;;;;;;;;;;1.80;76.68;98953.59;1794611;80;20225;-63
2021/04/05 04:11:57;;;;;;;;;;;;;;;1.80;76.58;98952.31;1741736;80;20226;-63
2021/04/05 04:14:25;;;;;;;;;;;;;;;1.88;76.46;98944.09;1795913;80;20218;-63
2021/04/05 04:16:52;;;;;;;;;;;;;;;2.08;76.72;98944.63;1795877;80;21202;-63
2021/04/05 04:19:19;;;;;;;;;;;;;;;2.53;76.55;98939.61;1766047;80;20605;-63
2021/04/05 04:21:48;;;;;;;;;;;;;;;3.05;75.99;98938.19;1795836;80;20217;-64
2021/04/05 04:24:15;;;;;;;;;;;;;;;3.69;74.70;98939.85;1795841;79;20225;-64
2021/04/05 04:26:43;;;;;;;;;;;;;;;4.29;72.90;98934.16;1795975;80;20226;-64
2021/04/05 04:29:20;;;;;;;;;;;;;;;4.76;71.12;98930.38;1795870;80;22301;-64
2021/04/05 04:31:47;;;;;;;;;;;;;;;5.22;69.97;98929.94;1795845;80;20238;-64
2021/04/05 04:34:16;;;;;;;;;;;;;;;5.76;68.55;98932.64;1795854;80;20234;-65
2021/04/05 04:36:43;;;;;;;;;;;;;;;6.27;66.87;98932.36;1795863;79;20226;-64
2021/04/05 04:39:11;;;;;;;;;;;;;;;6.73;65.46;98923.91;1795889;80;20213;-64
2021/04/05 04:41:41;;;;;;;;;;;;;;;7.13;64.13;98922.06;1795850;80;21256;-64
2021/04/05 04:44:09;;;;;;;;;;;;;;;7.37;62.43;98921.16;1795794;80;21284;-64
2021/04/05 04:46:38;;;;;;;;;;;;;;;7.45;61.71;98916.98;1795797;78;20226;-65
2021/04/05 04:49:07;;;;;;;;;;;;;;;7.49;60.94;98913.38;1795253;80;20281;-65
2021/04/05 04:51:35;;;;;;;;;;;;;;;7.41;60.32;98909.77;1793853;80;20218;-64
2021/04/05 04:54:03;;;;;;;;;;;;;;;7.23;60.26;98915.19;1793889;80;21356;-63
2021/04/05 04:56:30;;;;;;;;;;;;;;;7.09;60.30;98917.89;1793907;80;20501;-64
2021/04/05 04:58:59;;;;;;;;;;;;;;;6.96;60.38;98917.94;1793849;80;20238;-64
2021/04/05 05:01:26;;;;;;;;;;;;;;;6.76;60.53;98907.86;1793795;80;20214;-65
2021/04/05 05:03:59;;;;;;;;;;;;;;;6.64;60.83;98905.69;1793856;80;20234;-64
2021/04/05 05:06:26;;;;;;;;;;;;;;;6.64;61.20;98896.64;1800031;79;21191;-65
2021/04/05 05:08:55;;;;;;;;;;;;;;;6.71;60.83;98899.41;1809414;79;20240;-64
2021/04/05 05:11:22;;;;;;;;;;;;;;;6.63;60.71;98896.69;1809923;79;20492;-64
2021/04/05 05:13:50;;;;;;;;;;;;;;;6.49;60.94;98890.71;1810078;79;20216;-64
2021/04/05 05:16:18;;;;;;;;;;;;;;;6.52;61.43;98889.32;1805321;79;20393;-65
2021/04/05 05:18:45;;;;;;;;;;;;;;;6.54;60.85;98882.36;1792890;80;21212;-63
2021/04/05 05:21:18;;;;;;;;;;;;;;;6.43;61.06;98883.16;1792053;80;20226;-63
2021/04/05 05:23:46;;;;;;;;;;;;;;;6.38;61.30;98884.63;1792052;80;20234;-64
2021/04/05 05:26:13;;;;;;;;;;;;;;;6.35;61.57;98883.44;1793130;80;20226;-64
2021/04/05 05:28:40;;;;;;;;;;;;;;;6.32;61.56;98881.41;1793451;80;20272;-63
2021/04/05 05:31:07;;;;;;;;;;;;;;;6.32;61.78;98886.56;1792385;80;21394;-65
2021/04/05 05:33:35;;;;;;;;;;;;;;;6.39;61.80;98883.73;1792323;80;20254;-65
2021/04/05 05:36:03;;;;;;;;;;;;;;;6.42;61.47;98885.34;1790839;80;20284;-66
2021/04/05 05:38:31;;;;;;;;;;;;;;;6.40;61.55;98887.98;1791019;80;20249;-63
2021/04/05 05:41:01;;;;;;;;;;;;;;;6.45;61.54;98880.92;1791944;80;20218;-64
2021/04/05 05:43:44;;;;;;;;;;;;;;;6.54;61.40;98886.23;1790636;80;21555;-65
2021/04/05 05:46:24;;;;;;;;;;;;;;;6.58;61.20;98878.78;1791432;79;20269;-64
2021/04/05 05:49:15;;;;;;;;;;;;;;;6.66;61.20;98881.08;1767126;80;20286;-65
2021/04/05 05:51:58;;;;;;;;;;;;;;;6.68;61.01;98880.13;1791359;80;20502;-68
2021/04/05 05:54:47;;;;;;;;;;;;;;;6.75;60.83;98882.06;1791792;80;20501;-66
2021/04/05 05:57:21;;;;;;;;;;;;;;;6.73;60.57;98881.27;1792075;80;21258;-66
2021/04/05 05:59:51;;;;;;;;;;;;;;;6.69;60.70;98877.10;1791951;80;20214;-64
2021/04/05 06:02:38;;;;;;;;;;;;;;;6.65;60.76;98875.07;1792162;80;20230;-64
2021/04/05 06:05:26;;;;;;;;;;;;;;;6.69;60.90;98875.36;1761568;81;20287;-64
2021/04/05 06:08:20;;;;;;;;;;;;;;;6.77;60.80;98869.48;1761265;81;20303;-64
2021/04/05 06:11:13;;;;;;;;;;;;;;;6.89;60.59;98868.19;1702779;83;21997;-63
2021/04/05 06:14:00;;;;;;;;;;;;;;;7.06;60.36;98868.86;1816121;79;20280;-64
2021/04/05 06:16:47;;;;;;;;;;;;;;;7.18;60.31;98864.55;1766775;80;20256;-65
2021/04/05 06:19:23;;;;;;;;;;;;;;;7.46;59.87;98862.59;1780879;80;21051;-62
2021/04/05 06:22:09;;;;;;;;;;;;;;;7.66;58.88;98864.40;1768805;80;20247;-62
2021/04/05 06:25:12;;;;;;;;;;;;;;;7.69;58.32;98861.70;1755633;81;20173;-64
2021/04/05 06:27:42;;;;;;;;;;;;;;;7.76;58.37;98863.15;1755615;81;20235;-63
2021/04/05 06:30:43;;;;;;;;;;;;;;;7.82;57.69;98857.70;1755688;81;20514;-63
2021/04/05 06:33:33;;;;;;;;;;;;;;;7.91;57.28;98861.23;1755428;81;21409;-62
2021/04/05 06:36:22;;;;;;;;;;;;;;;8.07;57.06;98855.42;1755234;80;20312;-62
2021/04/05 06:39:05;;;;;;;;;;;;;;;8.18;55.99;98856.69;1766538;80;20252;-65
2021/04/05 06:41:36;;;;;;;;;;;;;;;8.17;55.85;98853.70;1754458;80;20322;-64
2021/04/05 06:44:30;;;;;;;;;;;;;;;8.31;55.15;98853.12;1754913;81;21208;-66
2021/04/05 06:47:17;;;;;;;;;;;;;;;8.34;54.80;98853.03;1749691;81;21215;-67
2021/04/05 06:49:51;;;;;;;;;;;;;;;8.41;54.11;98845.81;1718576;83;20513;-66
2021/04/05 06:52:30;;;;;;;;;;;;;;;8.53;53.11;98847.45;1719645;82;20251;-66
2021/04/05 06:55:14;;;;;;;;;;;;;;;8.72;51.34;98844.90;1719709;83;20243;-66
2021/04/05 06:58:04;;;;;;;;;;;;;;;8.89;51.11;98847.58;1719786;83;20255;-62
2021/04/05 07:00:51;;;;;;;;;;;;;;;9.13;51.55;98841.75;1709800;83;21210;-62
2021/04/05 07:03:56;;;;;;;;;;;;;;;9.48;49.43;98843.17;1719636;83;20491;-65
2021/04/05 07:06:51;;;;;;;;;;;;;;;9.76;48.27;98837.52;1719601;83;20247;-63
2021/04/05 07:09:51;;;;;;;;;;;;;;;9.98;47.54;98839.00;1719662;83;20245;-64
2021/04/05 07:12:28;;;;;;;;;;;;;;;10.06;47.22;98836.01;1715830;83;20290;-64
2021/04/05 07:15:20;;;;;;;;;;;;;;;10.12;47.37;98830.52;1712671;83;21392;-65
2021/04/05 07:18:10;;;;;;;;;;;;;;;10.16;46.80;98828.61;1715386;83;20224;-65
2021/04/05 07:21:05;;;;;;;;;;;;;;;10.08;46.15;98825.55;1704138;83;20279;-64
2021/04/05 07:24:07;;;;;;;;;;;;;;;9.96;46.27;98820.05;1703579;84;20262;-65
2021/04/05 07:26:41;;;;;;;;;;;;;;;9.78;46.37;98817.52;1703955;84;20231;-65
2021/04/05 07:29:11;;;;;;;;;;;;;;;9.67;46.53;98819.31;1703880;83;21254;-65
2021/04/05 07:31:58;;;;;;;;;;;;;;;9.56;46.69;98818.55;1703791;83;20296;-63
2021/04/05 07:34:29;;;;;;;;;;;;;;;9.42;46.85;98808.41;1693065;84;20269;-66
2021/04/05 07:37:00;;;;;;;;;;;;;;;9.37;46.37;98815.14;1703812;84;20220;-66
2021/04/05 07:39:38;;;;;;;;;;;;;;;9.27;46.66;98813.41;1847663;76;20170;-63
2021/04/05 07:42:09;;;;;;;;;;;;;;;9.18;46.72;98805.23;1817666;77;20336;-65
2021/04/05 07:44:56;;;;;;;;;;;;;;;9.24;46.85;98802.33;1751378;82;21191;-66
2021/04/05 07:47:45;;;;;;;;;;;;;;;9.37;46.46;98793.53;1728036;82;20133;-65
2021/04/05 07:50:40;;;;;;;;;;;;;;;9.46;46.18;98795.67;1755593;81;20496;-64
2021/04/05 07:53:19;;;;;;;;;;;;;;;9.39;46.18;98789.11;1755656;81;20204;-67
2021/04/05 07:55:49;;;;;;;;;;;;;;;9.24;46.19;98788.90;1755649;81;20279;-63
2021/04/05 07:58:32;;;;;;;;;;;;;;;9.14;46.61;98790.70;1688468;83;20999;-65
2021/04/05 08:01:11;;;;;;;;;;;;;;;9.10;46.72;98787.87;1751314;82;20137;-67
2021/04/05 08:04:02;;;;;;;;;;;;;;;9.09;47.14;98782.29;1740514;82;20497;-65
2021/04/05 08:06:40;;;;;;;;;;;;;;;9.10;47.45;98780.92;1743374;82;20490;-66
2021/04/05 08:09:11;;;;;;;;;;;;;;;9.14;46.25;98781.17;1691742;82;20219;-65
2021/04/05 08:11:51;;;;;;;;;;;;;;;9.16;46.23;98779.35;1743317;82;20257;-65
2021/04/05 08:14:39;;;;;;;;;;;;;;;9.22;46.62;98771.27;1742715;82;20599;-65
2021/04/05 08:17:22;;;;;;;;;;;;;;;9.35;46.21;98762.46;1682865;82;20222;-65
2021/04/05 08:19:53;;;;;;;;;;;;;;;9.53;46.50;98762.03;1743460;82;20494;-66
2021/04/05 08:22:43;;;;;;;;;;;;;;;9.72;45.05;98748.53;1743378;82;20242;-64
2021/04/05 08:25:33;;;;;;;;;;;;;;;9.87;44.19;98749.52;1743090;82;20239;-64
2021/04/05 08:28:19;;;;;;;;;;;;;;;9.99;43.81;98746.33;1743371;82;20235;-64
2021/04/05 08:30:50;;;;;;;;;;;;;;;10.06;42.71;98729.95;1714345;82;20218;-64
2021/04/05 08:33:33;;;;;;;;;;;;;;;9.93;42.50;98730.58;1743368;82;20273;-64
2021/04/05 08:36:37;;;;;;;;;;;;;;;9.79;42.67;98727.00;1742696;82;20269;-65
2021/04/05 08:39:13;;;;;;;;;;;;;;;9.63;42.85;98726.90;1745736;81;21202;-65
2021/04/05 08:42:02;;;;;;;;;;;;;;;9.45;42.29;98727.80;1745210;80;20309;-64
2021/04/05 08:44:55;;;;;;;;;;;;;;;9.29;42.52;98729.84;1746133;82;20529;-65
2021/04/05 08:47:25;;;;;;;;;;;;;;;9.34;42.80;98725.74;1723521;82;20532;-66
2021/04/05 08:49:59;;;;;;;;;;;;;;;9.54;42.12;98724.77;1744095;81;20309;-64
2021/04/05 08:52:27;;;;;;;;;;;;;;;9.69;41.62;98720.12;1744754;82;21198;-66
2021/04/05 08:54:54;;;;;;;;;;;;;;;9.88;40.87;98713.08;1744550;82;20324;-67
2021/04/05 08:57:29;;;;;;;;;;;;;;;10.12;40.74;98712.30;1751075;80;20222;-63
2021/04/05 09:00:05;;;;;;;;;;;;;;;10.43;40.27;98709.41;1745253;82;20234;-64
2021/04/05 09:02:41;;;;;;;;;;;;;;;10.68;39.76;98702.83;1746547;82;20328;-64
2021/04/05 09:05:11;;;;;;;;;;;;;;;10.98;39.39;98700.33;1745681;82;21381;-66
2021/04/05 09:08:00;;;;;;;;;;;;;;;11.25;38.65;98697.93;1744200;82;20355;-69
2021/04/05 09:10:48;;;;;;;;;;;;;;;11.35;38.42;98698.27;1743283;81;20488;-65
2021/04/05 09:13:21;;;;;;;;;;;;;;;11.52;37.84;98688.18;1744922;82;20226;-64
2021/04/05 09:16:26;;;;;;;;;;;;;;;11.74;37.41;98679.03;1746189;82;20293;-64
2021/04/05 09:19:19;;;;;;;;;;;;;;;11.97;37.10;98672.50;1746124;81;21372;-63
2021/04/05 09:22:07;;;;;;;;;;;;;;;12.05;35.49;98667.64;1746263;82;20218;-63
2021/04/05 09:24:57;;;;;;;;;;;;;;;11.89;34.36;98661.69;1746519;82;20217;-66
2021/04/05 09:27:57;;;;;;;;;;;;;;;11.77;34.68;98660.28;1746511;82;20254;-64
2021/04/05 09:31:02;;;;;;;;;;;;;;;11.78;34.82;98651.53;1746153;81;20218;-64
2021/04/05 09:33:44;;;;;;;;;;;;;;;11.84;34.75;98643.33;1746511;82;21386;-63
2021/04/05 09:36:44;;;;;;;;;;;;;;;11.98;34.55;98645.97;1746478;82;20223;-64
2021/04/05 09:39:23;;;;;;;;;;;;;;;11.99;33.39;98636.73;1744087;81;20494;-64
2021/04/05 09:42:29;;;;;;;;;;;;;;;11.77;33.27;98635.06;1742740;82;20226;-66
2021/04/05 09:45:30;;;;;;;;;;;;;;;11.68;33.58;98629.05;1742814;82;20222;-65
2021/04/05 09:48:15;;;;;;;;;;;;;;;11.71;33.90;98632.78;1742203;82;21231;-64
2021/04/05 09:51:04;;;;;;;;;;;;;;;11.63;33.90;98631.08;1742748;82;20222;-63
2021/04/05 09:53:45;;;;;;;;;;;;;;;11.36;34.75;98625.74;1741995;82;20238;-63
2021/04/05 09:56:15;;;;;;;;;;;;;;;11.05;36.03;98624.88;1742709;81;20497;-67
2021/04/05 09:58:45;;;;;;;;;;;;;;;10.93;35.31;98629.95;1742638;81;20213;-66
2021/04/05 10:01:20;;;;;;;;;;;;;;;10.72;35.00;98621.58;1751410;80;21295;-64
2021/04/05 10:03:51;;;;;;;;;;;;;;;10.49;35.59;98624.59;1745857;82;20230;-65
2021/04/05 10:06:18;;;;;;;;;;;;;;;10.35;36.02;98623.59;1745745;82;20281;-64
2021/04/05 10:08:48;;;;;;;;;;;;;;;10.27;36.80;98629.66;1745099;82;20301;-65
2021/04/05 10:11:15;;;;;;;;;;;;;;;10.33;37.10;98618.10;1745056;81;20246;-65
2021/04/05 10:13:49;;;;;;;;;;;;;;;10.39;36.97;98615.17;1691385;82;20230;-64
2021/04/05 10:16:16;;;;;;;;;;;;;;;10.37;36.23;98622.22;1741493;82;20494;-65
2021/04/05 10:20:36;;;;;;;9.43;3.25;;;;;;;10.22;36.20;98619.95;1815874;79;22053;-63
2021/04/05 10:23:09;;;;;;;79.82;6.25;;;;;;;10.13;36.53;98618.30;1778544;80;21059;-63
2021/04/05 10:25:37;;;;;;;25.27;4.00;;;;;;;10.13;36.52;98613.94;1738287;80;21141;-61
2021/04/05 10:28:06;;;;;;;51.20;4.42;;;;;;;10.25;36.88;98610.70;1788998;80;21485;-63
2021/04/05 10:30:37;;;;;;;19.23;2.67;;;;;;;10.43;36.03;98607.56;1789097;80;21472;-62
2021/04/05 10:33:14;;;;;;;34.90;5.60;;;;;;;10.48;35.54;98604.27;1788848;80;21499;-61
2021/04/05 10:35:48;;;;;;;139.22;11.33;;;;;;;10.47;35.92;98601.28;1789058;80;21111;-61
2021/04/05 10:38:17;;;;;;;18.48;3.12;;;;;;;10.59;36.26;98593.29;1770157;80;21197;-63
2021/04/05 10:40:45;;;;;;;87.50;8.08;;;;;;;10.78;35.55;98583.53;1757743;81;21000;-63
2021/04/05 10:43:28;;;;;;;96.17;8.10;;;;;;;10.93;35.02;98582.66;1757404;81;21170;-64
2021/04/05 10:46:06;;;;;;;35.90;4.80;;;;;;;11.04;34.68;98588.53;1726652;81;21175;-64
2021/04/05 10:48:40;;;;;;;363.95;29.25;;;;;;;11.15;33.75;98586.64;1737103;81;21091;-64
2021/04/05 10:51:19;;;;;;;413.93;28.80;;;;;;;11.22;32.40;98577.06;1759255;81;21540;-65
2021/04/05 10:53:50;;;;;;;181.05;15.28;;;;;;;11.33;32.13;98579.89;1759058;81;21155;-64
2021/04/05 10:56:18;;;;;;;89.50;7.72;;;;;;;11.41;31.25;98572.91;1759163;81;21051;-63
2021/04/05 10:58:53;;;;;;;35.48;4.65;;;;;;;11.47;30.69;98569.13;1759100;81;21103;-63
2021/04/05 11:01:20;;;;;;;18.02;3.35;;;;;;;11.51;30.18;98570.16;1759259;81;21133;-62
2021/04/05 11:03:50;;;;;;;109.72;8.38;;;;;;;11.52;29.93;98566.63;1731824;81;23374;-64
2021/04/05 11:06:21;;;;;;;39.88;5.08;;;;;;;11.48;29.97;98559.92;1759207;81;21182;-63
2021/04/05 11:08:51;;;;;;;45.80;5.17;;;;;;;11.36;30.86;98558.89;1759266;81;21578;-62
2021/04/05 11:11:33;;;;;;;19.62;4.33;;;;;;;11.32;30.81;98566.50;1759091;81;21170;-65
2021/04/05 11:14:07;;;;;;;60.65;6.37;;;;;;;11.21;31.01;98560.23;1759260;81;21082;-66
2021/04/05 11:16:35;;;;;;;12.98;3.50;;;;;;;11.11;31.35;98555.20;1759021;81;21339;-63
2021/04/05 11:19:08;;;;;;;59.50;7.97;;;;;;;11.07;32.03;98551.09;1760770;80;21213;-64
2021/04/05 11:21:44;;;;;;;14.78;4.45;;;;;;;11.13;32.55;98552.05;1751539;82;21139;-63
2021/04/05 11:24:13;;;;;;;77.90;8.80;;;;;;;11.17;32.14;98554.39;1751880;82;21131;-66
2021/04/05 11:26:45;;;;;;;19.15;3.70;;;;;;;11.16;32.00;98545.37;1726027;82;21170;-63
2021/04/05 11:29:16;;;;;;;45.92;6.28;;;;;;;11.20;31.94;98549.45;1751095;82;22260;-64
2021/04/05 11:31:45;;;;;;;39.65;5.28;;;;;;;11.17;32.44;98539.24;1751234;82;21107;-65
2021/04/05 11:34:15;;;;;;;10.70;2.87;;;;;;;11.08;32.89;98543.66;1751202;82;21080;-64
2021/04/05 11:36:51;;;;;;;65.28;5.58;;;;;;;11.07;32.73;98538.09;1751344;82;21147;-64
2021/04/05 11:39:28;;;;;;;33.23;4.28;;;;;;;11.13;32.39;98533.38;1751317;82;21140;-66
2021/04/05 11:42:00;;;;;;;42.80;4.70;;;;;;;11.11;31.61;98531.32;1751250;82;21189;-62
2021/04/05 11:44:49;;;;;;;115.10;9.90;;;;;;;11.05;31.04;98529.91;1726165;82;21166;-62
2021/04/05 11:47:19;;;;;;;52.25;6.25;;;;;;;11.08;30.74;98523.69;1726456;82;21142;-65
2021/04/05 11:49:46;;;;;;;42.38;5.90;;;;;;;11.11;29.72;98519.61;1751323;82;21499;-65
2021/04/05 11:52:35;;;;;;;9.50;3.85;;;;;;;11.09;29.95;98514.12;1751328;82;21127;-63
2021/04/05 11:55:05;;;;;;;10.55;3.27;;;;;;;10.97;31.24;98511.31;1751025;82;21233;-64
2021/04/05 11:57:39;;;;;;;11.40;2.98;;;;;;;10.98;31.78;98512.99;1751313;82;21608;-65
2021/04/05 12:00:11;;;;;;;11.22;3.00;;;;;;;11.07;31.67;98501.19;1751068;82;21232;-65
2021/04/05 12:03:18;;;;;;;15.85;3.02;;;;;;;11.23;31.56;98500.66;1751237;82;21171;-64
2021/04/05 12:05:55;;;;;;;28.23;4.87;;;;;;;11.26;31.78;98497.88;1751037;82;21108;-62
2021/04/05 12:08:28;;;;;;;140.68;11.48;;;;;;;11.36;31.75;98493.80;1749991;81;21219;-63
2021/04/05 12:11:02;;;;;;;42.85;4.05;;;;;;;11.54;31.34;98491.02;1726088;82;21071;-63
2021/04/05 12:13:37;;;;;;;19.48;3.10;;;;;;;11.70;31.36;98486.08;1751139;82;21123;-65
2021/04/05 12:16:06;;;;;;;32.23;3.72;;;;;;;11.79;30.84;98483.38;1751202;82;21075;-62
2021/04/05 12:18:35;;;;;;;11.65;2.60;;;;;;;11.73;31.18;98480.68;1751082;81;21079;-62
2021/04/05 12:21:08;;;;;;;130.52;13.70;;;;;;;11.73;31.40;98475.47;1752969;81;22255;-61
2021/04/05 12:23:36;;;;;;;4.10;2.43;;;;;;;11.71;31.58;98473.89;1753661;81;21087;-62
2021/04/05 12:26:05;;;;;;;9.25;2.15;;;;;;;11.61;31.85;98470.16;1753128;81;21072;-62
2021/04/05 12:28:37;;;;;;;27.10;4.17;;;;;;;11.46;32.10;98469.34;1753398;81;21141;-61
2021/04/05 12:31:10;;;;;;;7.35;2.58;;;;;;;11.29;32.65;98459.95;1753764;81;21468;-61
2021/04/05 12:33:40;;;;;;;31.95;4.75;;;;;;;11.28;32.46;98462.64;1750768;81;21174;-62
2021/04/05 12:36:09;;;;;;;12.33;3.20;;;;;;;11.37;32.57;98452.98;1753426;81;21603;-62
2021/04/05 12:38:37;;;;;;;9.10;2.30;;;;;;;11.53;32.08;98451.13;1753201;81;21183;-62
2021/04/05 12:41:08;;;;;;;19.37;5.62;;;;;;;11.56;32.29;98454.84;1753255;81;21195;-64
2021/04/05 12:43:38;;;;;;;205.12;15.50;;;;;;;11.54;32.19;98446.75;1753369;81;21084;-64
2021/04/05 12:46:14;;;;;;;191.57;13.38;;;;;;;11.54;32.14;98441.54;1753366;81;21345;-64
2021/04/05 12:48:44;;;;;;;66.22;6.87;;;;;;;11.54;31.58;98444.98;1753526;81;21139;-62
2021/04/05 12:51:16;;;;;;;23.47;4.85;;;;;;;11.56;31.60;98441.82;1753408;81;21217;-63
2021/04/05 12:53:43;;;;;;;10.32;3.90;;;;;;;11.53;31.80;98438.56;1753470;81;21076;-62
2021/04/05 12:56:18;;;;;;;10.35;3.02;;;;;;;11.48;31.66;98435.39;1753471;81;21108;-62
2021/04/05 12:58:53;;;;;;;48.95;7.17;;;;;;;11.45;31.51;98428.61;1753351;81;21408;-61
2021/04/05 13:01:35;;;;;;;60.58;9.50;;;;;;;11.46;31.67;98428.14;1753038;81;21158;-63
2021/04/05 13:04:03;;;;;;;19.67;4.67;;;;;;;11.49;31.94;98418.84;1753388;81;21111;-63
2021/04/05 13:06:45;;;;;;;15.13;5.97;;;;;;;11.43;31.63;98419.22;1753380;81;21563;-63
2021/04/05 13:09:21;;;;;;;100.42;11.78;;;;;;;11.34;31.73;98418.87;1752935;81;21139;-62
2021/04/05 13:11:57;;;;;;;33.58;5.85;;;;;;;11.29;31.99;98409.19;1753415;81;21438;-62